createdAt,value
2023-02-19T00:01:26.233Z,100461.81
2023-02-19T00:03:56.279Z,100456.63
2023-02-19T00:06:24.090Z,100460.84
2023-02-19T00:08:51.120Z,100467.25
2023-02-19T00:11:20.388Z,100463.41
2023-02-19T00:13:49.413Z,100465.81
2023-02-19T00:16:22.075Z,100469.19
2023-02-19T00:18:49.091Z,100462.69
2023-02-19T00:21:16.248Z,100451.22
2023-02-19T00:23:42.960Z,100449.28
2023-02-19T00:26:18.229Z,100453.03
2023-02-19T00:28:47.099Z,100439.75
2023-02-19T00:31:18.347Z,100440.00
2023-02-19T00:33:46.632Z,100411.47
2023-02-19T00:36:14.046Z,100398.84
2023-02-19T00:38:42.006Z,100400.94
2023-02-19T00:41:21.378Z,100431.28
2023-02-19T00:43:57.257Z,100431.56
2023-02-19T00:46:25.581Z,100441.47
2023-02-19T00:48:55.327Z,100413.06
2023-02-19T00:51:24.355Z,100411.22
2023-02-19T00:53:51.283Z,100414.75
2023-02-19T00:56:18.424Z,100414.88
2023-02-19T00:58:46.850Z,100440.75
2023-02-19T01:01:14.225Z,100440.88
2023-02-19T01:03:41.067Z,100431.94
2023-02-19T01:06:10.007Z,100431.22
2023-02-19T01:08:36.702Z,100453.72
2023-02-19T01:11:05.519Z,100434.13
2023-02-19T01:13:32.808Z,100427.13
2023-02-19T01:16:04.785Z,100430.53
2023-02-19T01:18:32.105Z,100421.47
2023-02-19T01:20:59.000Z,100416.50
2023-02-19T01:23:26.128Z,100414.44
2023-02-19T01:25:52.821Z,100410.25
2023-02-19T01:28:19.464Z,100404.31
2023-02-19T01:30:46.109Z,100409.63
2023-02-19T01:33:12.799Z,100416.16
2023-02-19T01:35:39.893Z,100413.13
2023-02-19T01:38:08.268Z,100412.41
2023-02-19T01:40:35.348Z,100417.88
2023-02-19T01:43:03.630Z,100418.34
2023-02-19T01:45:34.914Z,100413.75
2023-02-19T01:48:14.887Z,100419.44
2023-02-19T01:50:46.061Z,100419.22
2023-02-19T01:53:14.777Z,100407.59
2023-02-19T01:55:42.750Z,100386.22
2023-02-19T01:58:10.316Z,100375.44
2023-02-19T02:00:38.393Z,100375.72
2023-02-19T02:03:05.342Z,100378.47
2023-02-19T02:05:37.881Z,100379.56
2023-02-19T02:08:23.100Z,100378.00
2023-02-19T02:10:51.207Z,100382.50
2023-02-19T02:13:18.002Z,100374.41
2023-02-19T02:16:23.136Z,100380.34
2023-02-19T02:19:19.417Z,100376.13
2023-02-19T02:22:06.681Z,100378.69
2023-02-19T02:24:48.428Z,100370.44
2023-02-19T02:27:36.585Z,100356.44
2023-02-19T02:30:17.565Z,100367.31
2023-02-19T02:33:08.774Z,100361.53
2023-02-19T02:35:42.929Z,100360.31
2023-02-19T02:38:11.700Z,100357.28
2023-02-19T02:40:42.375Z,100350.41
2023-02-19T02:43:11.749Z,100357.38
2023-02-19T02:45:40.144Z,100356.44
2023-02-19T02:48:42.555Z,100354.25
2023-02-19T02:51:24.679Z,100351.03
2023-02-19T02:54:40.279Z,100357.19
2023-02-19T02:57:14.687Z,100340.84
2023-02-19T02:59:49.119Z,100341.97
2023-02-19T03:02:22.767Z,100349.94
2023-02-19T03:05:40.523Z,100346.81
2023-02-19T03:08:10.434Z,100335.66
2023-02-19T03:10:43.373Z,100333.97
2023-02-19T03:13:32.865Z,100331.31
2023-02-19T03:16:22.897Z,100340.28
2023-02-19T03:19:11.859Z,100346.44
2023-02-19T03:21:40.688Z,100358.38
2023-02-19T03:24:29.807Z,100336.06
2023-02-19T03:26:59.038Z,100344.03
2023-02-19T03:29:30.754Z,100347.28
2023-02-19T03:32:54.217Z,100339.00
2023-02-19T03:35:23.717Z,100339.41
2023-02-19T03:38:02.717Z,100338.72
2023-02-19T03:40:35.162Z,100348.09
2023-02-19T03:43:15.229Z,100354.78
2023-02-19T03:45:52.164Z,100356.91
2023-02-19T03:48:21.748Z,100356.22
2023-02-19T03:50:55.492Z,100346.91
2023-02-19T03:53:32.592Z,100346.81
2023-02-19T03:56:11.503Z,100356.97
2023-02-19T03:58:44.391Z,100364.31
2023-02-19T04:01:41.626Z,100365.44
2023-02-19T04:04:24.056Z,100354.31
2023-02-19T04:06:54.924Z,100356.84
2023-02-19T04:09:23.498Z,100354.50
2023-02-19T04:11:58.455Z,100361.03
2023-02-19T04:15:05.613Z,100365.66
2023-02-19T04:17:38.168Z,100366.97
2023-02-19T04:20:08.360Z,100365.88
2023-02-19T04:22:36.476Z,100371.19
2023-02-19T04:25:03.381Z,100386.88
2023-02-19T04:27:30.093Z,100383.63
2023-02-19T04:29:56.889Z,100382.41
2023-02-19T04:32:23.651Z,100378.91
2023-02-19T04:34:50.745Z,100384.72
2023-02-19T04:37:18.246Z,100385.56
2023-02-19T04:39:44.943Z,100382.78
2023-02-19T04:42:11.678Z,100383.75
2023-02-19T04:44:38.380Z,100381.44
2023-02-19T04:47:05.094Z,100389.41
2023-02-19T04:49:31.827Z,100389.31
2023-02-19T04:51:58.537Z,100377.00
2023-02-19T04:54:25.296Z,100369.03
2023-02-19T04:56:52.001Z,100379.88
2023-02-19T04:59:18.950Z,100370.97
2023-02-19T05:01:45.862Z,100381.44
2023-02-19T05:04:12.617Z,100384.72
2023-02-19T05:06:39.291Z,100377.50
2023-02-19T05:09:05.953Z,100365.50
2023-02-19T05:11:32.620Z,100366.38
2023-02-19T05:13:59.603Z,100379.06
2023-02-19T05:16:26.341Z,100374.47
2023-02-19T05:18:53.102Z,100372.66
2023-02-19T05:21:20.014Z,100373.75
2023-02-19T05:23:46.667Z,100378.09
2023-02-19T05:26:19.152Z,100381.97
2023-02-19T05:28:46.910Z,100380.03
2023-02-19T05:31:14.530Z,100383.78
2023-02-19T05:33:43.009Z,100388.25
2023-02-19T05:36:12.418Z,100375.91
2023-02-19T05:38:40.205Z,100377.50
2023-02-19T05:41:13.143Z,100391.53
2023-02-19T05:43:41.328Z,100391.75
2023-02-19T05:46:08.596Z,100391.38
2023-02-19T05:48:35.427Z,100390.03
2023-02-19T05:51:06.845Z,100399.97
2023-02-19T05:53:33.717Z,100402.63
2023-02-19T05:56:00.595Z,100397.53
2023-02-19T05:58:27.899Z,100404.56
2023-02-19T06:00:55.092Z,100395.75
2023-02-19T06:03:21.933Z,100391.13
2023-02-19T06:05:48.899Z,100393.69
2023-02-19T06:08:16.168Z,100401.66
2023-02-19T06:10:43.303Z,100389.72
2023-02-19T06:13:10.661Z,100384.50
2023-02-19T06:15:37.868Z,100388.97
2023-02-19T06:18:04.753Z,100386.44
2023-02-19T06:20:31.436Z,100398.03
2023-02-19T06:22:58.192Z,100400.44
2023-02-19T06:25:24.971Z,100404.19
2023-02-19T06:27:51.616Z,100416.28
2023-02-19T06:30:18.412Z,100421.84
2023-02-19T06:32:45.208Z,100422.19
2023-02-19T06:35:11.968Z,100417.13
2023-02-19T06:37:38.696Z,100423.16
2023-02-19T06:40:05.724Z,100436.91
2023-02-19T06:42:33.133Z,100429.91
2023-02-19T06:44:59.866Z,100427.25
2023-02-19T06:47:26.512Z,100430.16
2023-02-19T06:49:53.218Z,100431.72
2023-02-19T06:52:19.949Z,100432.94
2023-02-19T06:54:46.665Z,100437.50
2023-02-19T06:57:13.512Z,100441.03
2023-02-19T06:59:50.478Z,100463.22
2023-02-19T07:02:20.194Z,100473.13
2023-02-19T07:04:46.914Z,100466.97
2023-02-19T07:07:13.642Z,100477.34
2023-02-19T07:09:40.330Z,100473.13
2023-02-19T07:12:07.257Z,100491.38
2023-02-19T07:14:34.057Z,100484.22
2023-02-19T07:17:00.931Z,100483.41
2023-02-19T07:19:27.589Z,100484.47
2023-02-19T07:21:54.270Z,100488.59
2023-02-19T07:24:22.109Z,100503.69
2023-02-19T07:26:48.839Z,100507.19
2023-02-19T07:29:15.730Z,100517.47
2023-02-19T07:31:43.017Z,100518.41
2023-02-19T07:34:09.734Z,100512.84
2023-02-19T07:36:36.405Z,100525.28
2023-02-19T07:39:03.936Z,100529.53
2023-02-19T07:41:30.716Z,100522.38
2023-02-19T07:43:58.739Z,100533.00
2023-02-19T07:46:25.423Z,100528.69
2023-02-19T07:48:52.112Z,100533.28
2023-02-19T07:51:20.040Z,100527.69
2023-02-19T07:53:47.966Z,100534.59
2023-02-19T07:56:14.623Z,100527.25
2023-02-19T07:58:41.403Z,100529.06
2023-02-19T08:01:14.686Z,100526.25
2023-02-19T08:03:42.267Z,100526.00
2023-02-19T08:06:11.032Z,100532.06
2023-02-19T08:08:38.874Z,100543.03
2023-02-19T08:11:24.719Z,100542.81
2023-02-19T08:13:53.139Z,100550.91
2023-02-19T08:16:33.232Z,100541.13
2023-02-19T08:19:07.169Z,100545.34
2023-02-19T08:21:34.499Z,100550.56
2023-02-19T08:24:01.334Z,100553.06
2023-02-19T08:26:28.152Z,100550.06
2023-02-19T08:28:54.878Z,100556.22
2023-02-19T08:31:21.696Z,100557.56
2023-02-19T08:33:48.475Z,100560.09
2023-02-19T08:36:15.197Z,100559.00
2023-02-19T08:38:41.961Z,100556.34
2023-02-19T08:41:11.227Z,100571.56
2023-02-19T08:43:38.484Z,100562.16
2023-02-19T08:46:06.907Z,100567.09
2023-02-19T08:48:33.761Z,100570.59
2023-02-19T08:51:06.986Z,100572.88
2023-02-19T08:53:34.932Z,100573.38
2023-02-19T08:56:15.573Z,100583.28
2023-02-19T08:58:42.621Z,100587.50
2023-02-19T09:01:11.460Z,100604.19
2023-02-19T09:03:38.718Z,100596.56
2023-02-19T09:06:05.632Z,100599.22
2023-02-19T09:08:32.339Z,100605.84
2023-02-19T09:11:00.968Z,100604.66
2023-02-19T09:13:28.004Z,100613.25
2023-02-19T09:15:57.023Z,100614.69
2023-02-19T09:18:24.908Z,100615.28
2023-02-19T09:20:51.659Z,100617.00
2023-02-19T09:23:18.331Z,100626.28
2023-02-19T09:25:45.048Z,100627.84
2023-02-19T09:28:17.954Z,100626.91
2023-02-19T09:30:44.683Z,100633.06
2023-02-19T09:33:11.409Z,100639.47
2023-02-19T09:35:41.149Z,100640.44
2023-02-19T09:38:10.416Z,100644.66
2023-02-19T09:40:38.678Z,100643.81
2023-02-19T09:43:19.607Z,100652.38
2023-02-19T09:45:46.997Z,100656.25
2023-02-19T09:48:13.702Z,100656.16
2023-02-19T09:50:45.856Z,100663.28
2023-02-19T09:53:19.767Z,100666.88
2023-02-19T09:55:46.520Z,100649.00
2023-02-19T09:58:29.812Z,100656.38
2023-02-19T10:00:56.933Z,100652.25
2023-02-19T10:03:43.286Z,100650.94
2023-02-19T10:06:20.295Z,100663.25
2023-02-19T10:08:48.247Z,100660.34
2023-02-19T10:11:15.702Z,100656.84
2023-02-19T10:14:12.108Z,100665.53
2023-02-19T10:16:40.872Z,100678.09
2023-02-19T10:19:11.787Z,100677.25
2023-02-19T10:21:38.894Z,100673.63
2023-02-19T10:24:06.359Z,100678.00
2023-02-19T10:26:36.490Z,100681.50
2023-02-19T10:29:03.841Z,100695.63
2023-02-19T10:31:31.381Z,100690.94
2023-02-19T10:34:01.018Z,100691.03
2023-02-19T10:36:36.354Z,100705.31
2023-02-19T10:39:15.922Z,100700.84
2023-02-19T10:41:44.318Z,100702.66
2023-02-19T10:44:13.774Z,100699.84
2023-02-19T10:46:45.346Z,100699.75
2023-02-19T10:49:32.815Z,100701.91
2023-02-19T10:52:30.012Z,100697.19
2023-02-19T10:55:13.542Z,100705.22
2023-02-19T10:57:40.529Z,100710.41
2023-02-19T11:00:16.287Z,100712.94
2023-02-19T11:02:44.210Z,100712.69
2023-02-19T11:05:16.835Z,100714.03
2023-02-19T11:07:54.816Z,100709.81
2023-02-19T11:10:27.809Z,100713.09
2023-02-19T11:12:59.959Z,100705.72
2023-02-19T11:15:32.481Z,100709.22
2023-02-19T11:18:20.189Z,100719.50
2023-02-19T11:20:49.915Z,100711.28
2023-02-19T11:23:23.648Z,100710.53
2023-02-19T11:25:54.090Z,100722.16
2023-02-19T11:28:25.162Z,100723.09
2023-02-19T11:30:51.823Z,100720.56
2023-02-19T11:33:22.282Z,100724.19
2023-02-19T11:35:51.306Z,100715.25
2023-02-19T11:38:19.304Z,100715.47
2023-02-19T11:41:04.523Z,100716.78
2023-02-19T11:43:44.140Z,100706.66
2023-02-19T11:46:33.773Z,100717.44
2023-02-19T11:49:26.121Z,100720.56
2023-02-19T11:51:55.682Z,100714.03
2023-02-19T11:54:48.614Z,100712.69
2023-02-19T11:57:37.500Z,100709.44
2023-02-19T12:00:32.188Z,100713.78
2023-02-19T12:03:04.694Z,100728.31
2023-02-19T12:06:01.737Z,100715.72
2023-02-19T12:08:46.714Z,100712.94
2023-02-19T12:11:36.637Z,100716.34
2023-02-19T12:14:21.370Z,100725.66
2023-02-19T12:16:59.777Z,100719.84
2023-02-19T12:19:39.548Z,100715.47
2023-02-19T12:22:12.747Z,100715.75
2023-02-19T12:24:51.453Z,100691.94
2023-02-19T12:27:46.140Z,100703.88
2023-02-19T12:30:31.852Z,100719.44
2023-02-19T12:33:01.425Z,100726.38
2023-02-19T12:35:40.742Z,100722.16
2023-02-19T12:38:33.532Z,100726.72
2023-02-19T12:41:20.073Z,100720.69
2023-02-19T12:44:00.314Z,100717.78
2023-02-19T12:46:29.802Z,100712.84
2023-02-19T12:49:00.401Z,100720.56
2023-02-19T12:51:37.302Z,100705.72
2023-02-19T12:54:14.358Z,100696.25
2023-02-19T12:56:55.426Z,100710.28
2023-02-19T12:59:24.210Z,100698.56
2023-02-19T13:02:05.594Z,100705.47
2023-02-19T13:04:40.685Z,100703.88
2023-02-19T13:07:13.060Z,100703.03
2023-02-19T13:09:46.844Z,100716.25
2023-02-19T13:12:43.293Z,100713.53
2023-02-19T13:15:15.317Z,100712.09
2023-02-19T13:17:45.763Z,100707.38
2023-02-19T13:20:34.163Z,100701.38
2023-02-19T13:23:45.849Z,100703.03
2023-02-19T13:26:31.261Z,100702.56
2023-02-19T13:29:35.033Z,100694.44
2023-02-19T13:32:25.339Z,100699.28
2023-02-19T13:35:11.539Z,100703.88
2023-02-19T13:37:38.552Z,100698.31
2023-02-19T13:40:33.183Z,100702.06
2023-02-19T13:43:02.504Z,100696.88
2023-02-19T13:45:34.485Z,100693.38
2023-02-19T13:48:12.718Z,100699.06
2023-02-19T13:50:39.628Z,100696.88
2023-02-19T13:53:44.545Z,100683.22
2023-02-19T13:56:30.505Z,100694.69
2023-02-19T13:59:11.009Z,100690.59
2023-02-19T14:01:52.951Z,100699.91
2023-02-19T14:04:38.928Z,100698.47
2023-02-19T14:07:05.579Z,100703.88
2023-02-19T14:09:52.664Z,100697.25
2023-02-19T14:12:20.480Z,100708.84
2023-02-19T14:14:51.621Z,100708.84
2023-02-19T14:17:34.826Z,100705.81
2023-02-19T14:20:16.696Z,100704.13
2023-02-19T14:22:46.581Z,100708.00
2023-02-19T14:25:27.346Z,100710.19
2023-02-19T14:28:48.783Z,100713.94
2023-02-19T14:31:29.374Z,100722.50
2023-02-19T14:33:59.866Z,100717.19
2023-02-19T14:36:32.517Z,100729.53
2023-02-19T14:39:13.865Z,100734.13
2023-02-19T14:41:44.969Z,100741.97
2023-02-19T14:44:24.943Z,100741.47
2023-02-19T14:47:03.269Z,100752.09
2023-02-19T14:49:45.873Z,100748.00
2023-02-19T14:52:19.750Z,100747.75
2023-02-19T14:54:50.143Z,100751.75
2023-02-19T14:57:23.348Z,100750.06
2023-02-19T14:59:54.449Z,100754.75
2023-02-19T15:02:21.347Z,100755.63
2023-02-19T15:04:48.303Z,100765.19
2023-02-19T15:07:19.329Z,100755.38
2023-02-19T15:09:51.425Z,100748.50
2023-02-19T15:12:25.849Z,100757.56
2023-02-19T15:14:57.448Z,100758.41
2023-02-19T15:17:32.473Z,100762.03
2023-02-19T15:20:03.995Z,100768.94
2023-02-19T15:22:33.209Z,100770.72
2023-02-19T15:25:03.604Z,100770.72
2023-02-19T15:27:30.903Z,100770.72
2023-02-19T15:29:57.570Z,100761.91
2023-02-19T15:32:26.648Z,100764.56
2023-02-19T15:35:01.354Z,100760.44
2023-02-19T15:37:30.209Z,100766.25
2023-02-19T15:39:59.127Z,100757.41
2023-02-19T15:42:28.516Z,100759.00
2023-02-19T15:45:09.349Z,100767.34
2023-02-19T15:47:52.750Z,100765.03
2023-02-19T15:50:39.574Z,100776.34
2023-02-19T15:53:18.263Z,100782.81
2023-02-19T15:56:06.009Z,100783.31
2023-02-19T15:59:02.739Z,100781.22
2023-02-19T16:01:31.559Z,100790.19
2023-02-19T16:03:58.755Z,100780.66
2023-02-19T16:06:26.882Z,100780.50
2023-02-19T16:09:05.696Z,100792.47
2023-02-19T16:11:54.314Z,100791.84
2023-02-19T16:14:26.813Z,100784.25
2023-02-19T16:17:17.508Z,100774.34
2023-02-19T16:19:55.500Z,100790.88
2023-02-19T16:22:25.730Z,100781.72
2023-02-19T16:24:58.684Z,100786.41
2023-02-19T16:27:37.264Z,100784.97
2023-02-19T16:30:10.132Z,100781.22
2023-02-19T16:32:36.839Z,100773.34
2023-02-19T16:35:03.566Z,100773.13
2023-02-19T16:37:38.537Z,100775.16
2023-02-19T16:40:25.038Z,100770.44
2023-02-19T16:42:51.965Z,100754.66
2023-02-19T16:45:18.880Z,100772.28
2023-02-19T16:47:48.485Z,100768.88
2023-02-19T16:50:20.266Z,100775.91
2023-02-19T16:52:58.062Z,100779.25
2023-02-19T16:55:25.457Z,100781.34
2023-02-19T16:57:52.418Z,100782.16
2023-02-19T17:00:23.860Z,100780.50
2023-02-19T17:02:56.541Z,100787.63
2023-02-19T17:05:24.116Z,100791.84
2023-02-19T17:07:50.774Z,100798.13
2023-02-19T17:10:27.707Z,100793.88
2023-02-19T17:12:55.562Z,100808.75
2023-02-19T17:15:23.341Z,100804.41
2023-02-19T17:17:50.521Z,100805.00
2023-02-19T17:20:17.394Z,100817.06
2023-02-19T17:22:44.373Z,100827.84
2023-02-19T17:25:11.327Z,100839.41
2023-02-19T17:27:38.123Z,100836.88
2023-02-19T17:30:12.224Z,100842.53
2023-02-19T17:32:39.022Z,100853.28
2023-02-19T17:35:06.236Z,100855.00
2023-02-19T17:37:33.097Z,100860.53
2023-02-19T17:39:59.845Z,100864.03
2023-02-19T17:42:26.682Z,100873.81
2023-02-19T17:44:53.644Z,100869.47
2023-02-19T17:47:21.109Z,100882.88
2023-02-19T17:49:48.044Z,100882.97
2023-02-19T17:52:17.624Z,100895.41
2023-02-19T17:54:44.556Z,100904.47
2023-02-19T17:57:11.357Z,100910.00
2023-02-19T17:59:38.116Z,100903.13
2023-02-19T18:02:04.913Z,100913.59
2023-02-19T18:04:31.827Z,100920.75
2023-02-19T18:06:58.698Z,100913.00
2023-02-19T18:09:25.476Z,100918.09
2023-02-19T18:11:52.308Z,100914.69
2023-02-19T18:14:19.188Z,100927.88
2023-02-19T18:16:50.084Z,100923.63
2023-02-19T18:19:17.275Z,100921.19
2023-02-19T18:21:44.209Z,100915.38
2023-02-19T18:24:11.070Z,100918.88
2023-02-19T18:26:38.043Z,100934.81
2023-02-19T18:29:05.361Z,100934.16
2023-02-19T18:31:37.108Z,100926.53
2023-02-19T18:34:08.692Z,100942.25
2023-02-19T18:36:35.451Z,100935.22
2023-02-19T18:39:02.240Z,100935.44
2023-02-19T18:41:28.903Z,100941.75
2023-02-19T18:43:55.768Z,100950.56
2023-02-19T18:46:22.731Z,100944.81
2023-02-19T18:48:49.514Z,100946.09
2023-02-19T18:51:16.359Z,100955.97
2023-02-19T18:53:43.160Z,100954.38
2023-02-19T18:56:10.008Z,100959.91
2023-02-19T18:58:37.005Z,100962.69
2023-02-19T19:01:04.035Z,100966.28
2023-02-19T19:03:31.615Z,100967.59
2023-02-19T19:05:58.518Z,100971.31
2023-02-19T19:08:25.572Z,100970.66
2023-02-19T19:10:52.423Z,100974.03
2023-02-19T19:13:19.204Z,100969.72
2023-02-19T19:15:50.711Z,100973.44
2023-02-19T19:18:18.341Z,100969.06
2023-02-19T19:20:45.061Z,100977.00
2023-02-19T19:23:12.287Z,100970.28
2023-02-19T19:25:39.005Z,100973.81
2023-02-19T19:28:05.824Z,100963.22
2023-02-19T19:30:34.705Z,100969.06
2023-02-19T19:33:03.531Z,100969.06
2023-02-19T19:35:30.359Z,100968.97
2023-02-19T19:37:57.061Z,100971.41
2023-02-19T19:40:23.796Z,100973.19
2023-02-19T19:42:52.227Z,100979.47
2023-02-19T19:45:18.986Z,100976.69
2023-02-19T19:47:46.052Z,100968.53
2023-02-19T19:50:14.440Z,100977.22
2023-02-19T19:52:41.198Z,100984.88
2023-02-19T19:55:08.310Z,100986.69
2023-02-19T19:57:35.077Z,100982.44
2023-02-19T20:00:02.270Z,100993.06
2023-02-19T20:02:39.177Z,100995.59
2023-02-19T20:05:06.858Z,100993.81
2023-02-19T20:07:33.846Z,100995.81
2023-02-19T20:10:00.633Z,101002.94
2023-02-19T20:12:27.478Z,101001.25
2023-02-19T20:14:54.392Z,100997.94
2023-02-19T20:17:21.552Z,100995.41
2023-02-19T20:19:48.318Z,100994.22
2023-02-19T20:22:15.194Z,100996.25
2023-02-19T20:24:42.135Z,101001.56
2023-02-19T20:27:08.934Z,100992.53
2023-02-19T20:29:36.331Z,100993.38
2023-02-19T20:32:03.685Z,100998.69
2023-02-19T20:34:30.838Z,101003.03
2023-02-19T20:36:57.637Z,101000.28
2023-02-19T20:39:28.699Z,101008.03
2023-02-19T20:41:56.136Z,101002.84
2023-02-19T20:44:22.964Z,101007.63
2023-02-19T20:46:50.891Z,101015.59
2023-02-19T20:49:20.529Z,101014.72
2023-02-19T20:51:47.183Z,101008.56
2023-02-19T20:54:14.548Z,101012.28
2023-02-19T20:56:49.947Z,101003.13
2023-02-19T20:59:18.848Z,101002.63
2023-02-19T21:01:45.802Z,100984.25
2023-02-19T21:04:13.209Z,100999.97
2023-02-19T21:06:39.972Z,101006.34
2023-02-19T21:09:07.240Z,101002.41
2023-02-19T21:11:34.234Z,101008.88
2023-02-19T21:14:01.065Z,101009.84
2023-02-19T21:16:32.336Z,101010.69
2023-02-19T21:18:59.567Z,101013.25
2023-02-19T21:21:27.044Z,101012.06
2023-02-19T21:23:56.184Z,101013.13
2023-02-19T21:26:23.617Z,101006.03
2023-02-19T21:28:53.911Z,101020.47
2023-02-19T21:31:21.054Z,101014.00
2023-02-19T21:33:48.850Z,101014.09
2023-02-19T21:36:18.316Z,101005.69
2023-02-19T21:38:45.008Z,101007.78
2023-02-19T21:41:11.744Z,101006.31
2023-02-19T21:43:38.442Z,101008.97
2023-02-19T21:46:05.237Z,101006.50
2023-02-19T21:48:31.990Z,100997.81
2023-02-19T21:50:58.727Z,101001.31
2023-02-19T21:53:25.436Z,101008.28
2023-02-19T21:55:58.425Z,101015.53
2023-02-19T21:58:26.208Z,101012.75
2023-02-19T22:00:54.023Z,101017.22
2023-02-19T22:03:21.077Z,101034.22
2023-02-19T22:05:47.767Z,101034.41
2023-02-19T22:08:15.888Z,101042.25
2023-02-19T22:10:42.697Z,101039.06
2023-02-19T22:13:10.096Z,101041.84
2023-02-19T22:15:37.044Z,101041.19
2023-02-19T22:18:03.986Z,101033.34
2023-02-19T22:20:30.711Z,101021.97
2023-02-19T22:22:57.459Z,101027.06
2023-02-19T22:25:24.235Z,101034.50
2023-02-19T22:27:51.040Z,101039.72
2023-02-19T22:30:17.997Z,101043.31
2023-02-19T22:32:44.864Z,101040.47
2023-02-19T22:35:11.619Z,101048.22
2023-02-19T22:37:38.344Z,101046.63
2023-02-19T22:40:05.536Z,101041.97
2023-02-19T22:42:33.917Z,101043.13
2023-02-19T22:45:01.840Z,101044.06
2023-02-19T22:47:28.585Z,101052.78
2023-02-19T22:49:55.274Z,101045.97
2023-02-19T22:52:23.972Z,101049.69
2023-02-19T22:54:52.294Z,101048.28
2023-02-19T22:57:18.996Z,101043.81
2023-02-19T22:59:45.740Z,101043.81
2023-02-19T23:02:12.588Z,101051.06
2023-02-19T23:04:39.344Z,101052.22
2023-02-19T23:07:06.706Z,101054.03
2023-02-19T23:09:33.404Z,101058.47
2023-02-19T23:12:05.375Z,101061.53
2023-02-19T23:14:32.133Z,101060.75
2023-02-19T23:16:58.919Z,101059.84
2023-02-19T23:19:26.021Z,101058.13
2023-02-19T23:21:52.913Z,101065.66
2023-02-19T23:24:19.700Z,101062.88
2023-02-19T23:26:51.684Z,101059.50
2023-02-19T23:29:25.161Z,101055.13
2023-02-19T23:31:52.613Z,101056.09
2023-02-19T23:34:19.520Z,101054.47
2023-02-19T23:36:48.327Z,101060.84
2023-02-19T23:39:17.245Z,101058.41
2023-02-19T23:41:51.560Z,101057.94
2023-02-19T23:44:19.275Z,101057.09
2023-02-19T23:46:45.973Z,101058.13
2023-02-19T23:49:12.877Z,101062.47
2023-02-19T23:51:39.612Z,101056.53
2023-02-19T23:54:06.500Z,101052.28
2023-02-19T23:56:33.194Z,101041.66
2023-02-19T23:58:59.921Z,101044.63
